Terminal Aerodrome Forecast
Issued by NWS

Home | Current Version | Previous Version | Text Only | Print | Product List | Glossary On
Versions: 1 2 3 4 5 6 7 8 9 10 11 12 13 14 15 16 17 18 19
000
FTUS43 KJKL 170500
TAFSME
TAF
KSME 170527Z 1706/1806 27009G14KT 6SM -DZ OVC015
     FM170700 29005KT 6SM -DZ OVC008
     FM171200 28004KT 6SM -DZ OVC020
     FM171800 28004KT P6SM BKN030
     FM172200 VRB03KT P6SM SCT030 BKN100=

USA.gov is the U.S. government's official web portal to all federal, state and local government web resources and services.